sensor_id;sensor_type;location;lat;lon;timestamp;temperature;humidity
42617;DHT22;28250;52.320;0.360;2024-01-30T00:01:02;10.80;99.90
42617;DHT22;28250;52.320;0.360;2024-01-30T00:03:30;10.80;99.90
42617;DHT22;28250;52.320;0.360;2024-01-30T00:05:56;10.90;99.90
42617;DHT22;28250;52.320;0.360;2024-01-30T00:08:22;10.80;99.90
42617;DHT22;28250;52.320;0.360;2024-01-30T00:10:48;10.80;99.90
42617;DHT22;28250;52.320;0.360;2024-01-30T00:13:15;10.90;99.90
42617;DHT22;28250;52.320;0.360;2024-01-30T00:15:43;10.80;99.90
42617;DHT22;28250;52.320;0.360;2024-01-30T00:18:09;10.80;99.90
42617;DHT22;28250;52.320;0.360;2024-01-30T00:20:35;10.80;99.90
42617;DHT22;28250;52.320;0.360;2024-01-30T00:23:01;10.80;99.90
42617;DHT22;28250;52.320;0.360;2024-01-30T00:25:27;10.80;99.90
42617;DHT22;28250;52.320;0.360;2024-01-30T00:27:53;10.80;99.90
42617;DHT22;28250;52.320;0.360;2024-01-30T00:30:20;10.80;99.90
42617;DHT22;28250;52.320;0.360;2024-01-30T00:32:46;10.80;99.90
42617;DHT22;28250;52.320;0.360;2024-01-30T00:35:12;10.90;99.90
42617;DHT22;28250;52.320;0.360;2024-01-30T00:37:39;10.90;99.90
42617;DHT22;28250;52.320;0.360;2024-01-30T00:40:05;10.80;99.90
42617;DHT22;28250;52.320;0.360;2024-01-30T00:42:31;10.90;99.90
42617;DHT22;28250;52.320;0.360;2024-01-30T00:44:58;10.90;99.90
42617;DHT22;28250;52.320;0.360;2024-01-30T00:47:24;10.90;99.90
42617;DHT22;28250;52.320;0.360;2024-01-30T00:49:50;10.90;99.90
42617;DHT22;28250;52.320;0.360;2024-01-30T00:52:16;10.90;99.90
42617;DHT22;28250;52.320;0.360;2024-01-30T00:54:42;10.90;99.90
42617;DHT22;28250;52.320;0.360;2024-01-30T00:57:08;10.80;99.90
42617;DHT22;28250;52.320;0.360;2024-01-30T00:59:34;10.80;99.90
42617;DHT22;28250;52.320;0.360;2024-01-30T01:02:01;10.70;99.90
42617;DHT22;28250;52.320;0.360;2024-01-30T01:04:27;10.70;99.90
42617;DHT22;28250;52.320;0.360;2024-01-30T01:06:53;10.70;99.90
42617;DHT22;28250;52.320;0.360;2024-01-30T01:09:19;10.70;99.90
42617;DHT22;28250;52.320;0.360;2024-01-30T01:11:45;10.70;99.90
42617;DHT22;28250;52.320;0.360;2024-01-30T01:14:11;10.70;99.90
42617;DHT22;28250;52.320;0.360;2024-01-30T01:16:39;10.60;99.90
42617;DHT22;28250;52.320;0.360;2024-01-30T01:19:10;10.60;99.90
42617;DHT22;28250;52.320;0.360;2024-01-30T01:21:36;10.60;99.90
42617;DHT22;28250;52.320;0.360;2024-01-30T01:24:03;10.60;99.90
42617;DHT22;28250;52.320;0.360;2024-01-30T01:26:29;10.60;99.90
42617;DHT22;28250;52.320;0.360;2024-01-30T01:28:55;10.70;99.90
42617;DHT22;28250;52.320;0.360;2024-01-30T01:31:21;10.70;99.90
42617;DHT22;28250;52.320;0.360;2024-01-30T01:33:50;10.70;99.90
42617;DHT22;28250;52.320;0.360;2024-01-30T01:36:16;10.70;99.90
42617;DHT22;28250;52.320;0.360;2024-01-30T01:38:42;10.70;99.90
42617;DHT22;28250;52.320;0.360;2024-01-30T01:41:08;10.80;99.90
42617;DHT22;28250;52.320;0.360;2024-01-30T01:43:34;10.90;99.90
42617;DHT22;28250;52.320;0.360;2024-01-30T01:46:01;10.90;99.90
42617;DHT22;28250;52.320;0.360;2024-01-30T01:48:27;11.00;99.90
42617;DHT22;28250;52.320;0.360;2024-01-30T01:50:53;11.00;99.90
42617;DHT22;28250;52.320;0.360;2024-01-30T01:53:19;11.00;99.90
42617;DHT22;28250;52.320;0.360;2024-01-30T01:55:45;11.00;99.90
42617;DHT22;28250;52.320;0.360;2024-01-30T01:58:12;11.00;99.90
42617;DHT22;28250;52.320;0.360;2024-01-30T02:00:39;11.10;99.90
42617;DHT22;28250;52.320;0.360;2024-01-30T02:03:10;11.20;99.90
42617;DHT22;28250;52.320;0.360;2024-01-30T02:05:40;11.20;99.90
42617;DHT22;28250;52.320;0.360;2024-01-30T02:08:08;11.20;99.90
42617;DHT22;28250;52.320;0.360;2024-01-30T02:10:34;11.20;99.90
42617;DHT22;28250;52.320;0.360;2024-01-30T02:13:00;11.20;99.90
42617;DHT22;28250;52.320;0.360;2024-01-30T02:15:26;11.20;99.90
42617;DHT22;28250;52.320;0.360;2024-01-30T02:17:52;11.20;99.90
42617;DHT22;28250;52.320;0.360;2024-01-30T02:20:19;11.20;99.90
42617;DHT22;28250;52.320;0.360;2024-01-30T02:22:45;11.20;99.90
42617;DHT22;28250;52.320;0.360;2024-01-30T02:25:11;11.20;99.90
42617;DHT22;28250;52.320;0.360;2024-01-30T02:27:37;11.30;99.90
42617;DHT22;28250;52.320;0.360;2024-01-30T02:30:04;11.30;99.90
42617;DHT22;28250;52.320;0.360;2024-01-30T02:32:31;11.30;99.90
42617;DHT22;28250;52.320;0.360;2024-01-30T02:34:57;11.30;99.90
42617;DHT22;28250;52.320;0.360;2024-01-30T02:37:23;11.30;99.90
42617;DHT22;28250;52.320;0.360;2024-01-30T02:39:49;11.40;99.90
42617;DHT22;28250;52.320;0.360;2024-01-30T02:42:15;11.30;99.90
42617;DHT22;28250;52.320;0.360;2024-01-30T02:44:41;11.40;99.90
42617;DHT22;28250;52.320;0.360;2024-01-30T02:47:07;11.40;99.90
42617;DHT22;28250;52.320;0.360;2024-01-30T02:49:34;11.40;99.90
42617;DHT22;28250;52.320;0.360;2024-01-30T02:52:03;11.40;99.90
42617;DHT22;28250;52.320;0.360;2024-01-30T02:54:29;11.40;99.90
42617;DHT22;28250;52.320;0.360;2024-01-30T02:56:56;11.40;99.90
42617;DHT22;28250;52.320;0.360;2024-01-30T02:59:22;11.50;99.90
42617;DHT22;28250;52.320;0.360;2024-01-30T03:01:48;11.50;99.90
42617;DHT22;28250;52.320;0.360;2024-01-30T03:04:14;11.40;99.90
42617;DHT22;28250;52.320;0.360;2024-01-30T03:06:45;11.50;99.90
42617;DHT22;28250;52.320;0.360;2024-01-30T03:09:12;11.40;99.90
42617;DHT22;28250;52.320;0.360;2024-01-30T03:11:39;11.40;99.90
42617;DHT22;28250;52.320;0.360;2024-01-30T03:14:05;11.40;99.90
42617;DHT22;28250;52.320;0.360;2024-01-30T03:16:31;11.30;99.90
42617;DHT22;28250;52.320;0.360;2024-01-30T03:18:57;11.20;99.90
42617;DHT22;28250;52.320;0.360;2024-01-30T03:21:23;11.20;99.90
42617;DHT22;28250;52.320;0.360;2024-01-30T03:23:49;11.20;99.90
42617;DHT22;28250;52.320;0.360;2024-01-30T03:26:15;11.20;99.90
42617;DHT22;28250;52.320;0.360;2024-01-30T03:28:41;11.20;99.90
42617;DHT22;28250;52.320;0.360;2024-01-30T03:31:07;11.10;99.90
42617;DHT22;28250;52.320;0.360;2024-01-30T03:33:33;11.10;99.90
42617;DHT22;28250;52.320;0.360;2024-01-30T03:36:04;11.10;99.90
42617;DHT22;28250;52.320;0.360;2024-01-30T03:38:30;11.00;99.90
42617;DHT22;28250;52.320;0.360;2024-01-30T03:40:59;11.00;99.90
42617;DHT22;28250;52.320;0.360;2024-01-30T03:43:25;11.00;99.90
42617;DHT22;28250;52.320;0.360;2024-01-30T03:45:52;10.90;99.90
42617;DHT22;28250;52.320;0.360;2024-01-30T03:48:19;10.90;99.90
42617;DHT22;28250;52.320;0.360;2024-01-30T03:50:46;10.90;99.90
42617;DHT22;28250;52.320;0.360;2024-01-30T03:53:12;10.80;99.90
42617;DHT22;28250;52.320;0.360;2024-01-30T03:55:38;10.70;99.90
42617;DHT22;28250;52.320;0.360;2024-01-30T03:58:04;10.70;99.90
42617;DHT22;28250;52.320;0.360;2024-01-30T04:00:30;10.60;99.90
42617;DHT22;28250;52.320;0.360;2024-01-30T04:02:56;10.60;99.90
42617;DHT22;28250;52.320;0.360;2024-01-30T04:05:22;10.60;99.90
42617;DHT22;28250;52.320;0.360;2024-01-30T04:07:48;10.60;99.90
42617;DHT22;28250;52.320;0.360;2024-01-30T04:10:14;10.50;99.90
42617;DHT22;28250;52.320;0.360;2024-01-30T04:12:40;10.50;99.90
42617;DHT22;28250;52.320;0.360;2024-01-30T04:15:07;10.50;99.90
42617;DHT22;28250;52.320;0.360;2024-01-30T04:17:33;10.40;99.90
42617;DHT22;28250;52.320;0.360;2024-01-30T04:19:59;10.40;99.90
42617;DHT22;28250;52.320;0.360;2024-01-30T04:22:25;10.30;99.90
42617;DHT22;28250;52.320;0.360;2024-01-30T04:24:51;10.30;99.90
42617;DHT22;28250;52.320;0.360;2024-01-30T04:27:17;10.20;99.90
42617;DHT22;28250;52.320;0.360;2024-01-30T04:29:44;10.20;99.90
42617;DHT22;28250;52.320;0.360;2024-01-30T04:32:10;10.10;99.90
42617;DHT22;28250;52.320;0.360;2024-01-30T04:34:36;10.00;99.90
42617;DHT22;28250;52.320;0.360;2024-01-30T04:37:03;10.00;99.90
42617;DHT22;28250;52.320;0.360;2024-01-30T04:39:29;9.90;99.90
42617;DHT22;28250;52.320;0.360;2024-01-30T04:41:55;10.00;99.90
42617;DHT22;28250;52.320;0.360;2024-01-30T04:44:21;9.90;99.90
42617;DHT22;28250;52.320;0.360;2024-01-30T04:46:47;9.90;99.90
42617;DHT22;28250;52.320;0.360;2024-01-30T04:49:13;9.90;99.90
42617;DHT22;28250;52.320;0.360;2024-01-30T04:51:39;9.80;99.90
42617;DHT22;28250;52.320;0.360;2024-01-30T04:54:05;9.80;99.90
42617;DHT22;28250;52.320;0.360;2024-01-30T04:56:31;9.80;99.90
42617;DHT22;28250;52.320;0.360;2024-01-30T04:58:57;9.80;99.90
42617;DHT22;28250;52.320;0.360;2024-01-30T05:01:23;9.80;99.90
42617;DHT22;28250;52.320;0.360;2024-01-30T05:03:49;9.80;99.90
42617;DHT22;28250;52.320;0.360;2024-01-30T05:06:24;9.70;99.90
42617;DHT22;28250;52.320;0.360;2024-01-30T05:08:51;9.70;99.90
42617;DHT22;28250;52.320;0.360;2024-01-30T05:11:17;9.70;99.90
42617;DHT22;28250;52.320;0.360;2024-01-30T05:13:43;9.70;99.90
42617;DHT22;28250;52.320;0.360;2024-01-30T05:16:09;9.60;99.90
42617;DHT22;28250;52.320;0.360;2024-01-30T05:18:35;9.70;99.90
42617;DHT22;28250;52.320;0.360;2024-01-30T05:21:02;9.70;99.90
42617;DHT22;28250;52.320;0.360;2024-01-30T05:23:29;9.70;99.90
42617;DHT22;28250;52.320;0.360;2024-01-30T05:25:55;9.70;99.90
42617;DHT22;28250;52.320;0.360;2024-01-30T05:28:21;9.70;99.90
42617;DHT22;28250;52.320;0.360;2024-01-30T05:30:47;9.70;99.90
42617;DHT22;28250;52.320;0.360;2024-01-30T05:33:13;9.70;99.90
42617;DHT22;28250;52.320;0.360;2024-01-30T05:35:39;9.70;99.90
42617;DHT22;28250;52.320;0.360;2024-01-30T05:38:05;9.70;99.90
42617;DHT22;28250;52.320;0.360;2024-01-30T05:40:31;9.70;99.90
42617;DHT22;28250;52.320;0.360;2024-01-30T05:42:57;9.70;99.90
42617;DHT22;28250;52.320;0.360;2024-01-30T05:45:28;9.70;99.90
42617;DHT22;28250;52.320;0.360;2024-01-30T05:47:54;9.60;99.90
42617;DHT22;28250;52.320;0.360;2024-01-30T05:50:20;9.60;99.90
42617;DHT22;28250;52.320;0.360;2024-01-30T05:52:49;9.60;99.90
42617;DHT22;28250;52.320;0.360;2024-01-30T05:55:15;9.60;99.90
42617;DHT22;28250;52.320;0.360;2024-01-30T05:57:41;9.60;99.90
42617;DHT22;28250;52.320;0.360;2024-01-30T06:00:07;9.60;99.90
42617;DHT22;28250;52.320;0.360;2024-01-30T06:02:34;9.60;99.90
42617;DHT22;28250;52.320;0.360;2024-01-30T06:05:00;9.50;99.90
42617;DHT22;28250;52.320;0.360;2024-01-30T06:07:26;9.50;99.90
42617;DHT22;28250;52.320;0.360;2024-01-30T06:09:53;9.50;99.90
42617;DHT22;28250;52.320;0.360;2024-01-30T06:12:19;9.50;99.90
42617;DHT22;28250;52.320;0.360;2024-01-30T06:14:45;9.50;99.90
42617;DHT22;28250;52.320;0.360;2024-01-30T06:17:11;9.50;99.90
42617;DHT22;28250;52.320;0.360;2024-01-30T06:19:38;9.40;99.90
42617;DHT22;28250;52.320;0.360;2024-01-30T06:22:05;9.50;99.90
42617;DHT22;28250;52.320;0.360;2024-01-30T06:24:31;9.40;99.90
42617;DHT22;28250;52.320;0.360;2024-01-30T06:26:57;9.40;99.90
42617;DHT22;28250;52.320;0.360;2024-01-30T06:29:23;9.40;99.90
42617;DHT22;28250;52.320;0.360;2024-01-30T06:31:52;9.40;99.90
42617;DHT22;28250;52.320;0.360;2024-01-30T06:34:18;9.40;99.90
42617;DHT22;28250;52.320;0.360;2024-01-30T06:36:44;9.40;99.90
42617;DHT22;28250;52.320;0.360;2024-01-30T06:39:10;9.40;99.90
42617;DHT22;28250;52.320;0.360;2024-01-30T06:41:36;9.40;99.90
42617;DHT22;28250;52.320;0.360;2024-01-30T06:44:03;9.40;99.90
42617;DHT22;28250;52.320;0.360;2024-01-30T06:46:34;9.40;99.90
42617;DHT22;28250;52.320;0.360;2024-01-30T06:49:00;9.40;99.90
42617;DHT22;28250;52.320;0.360;2024-01-30T06:51:27;9.40;99.90
42617;DHT22;28250;52.320;0.360;2024-01-30T06:53:53;9.30;99.90
42617;DHT22;28250;52.320;0.360;2024-01-30T06:56:19;9.30;99.90
42617;DHT22;28250;52.320;0.360;2024-01-30T06:58:50;9.20;99.90
42617;DHT22;28250;52.320;0.360;2024-01-30T07:01:16;9.20;99.90
42617;DHT22;28250;52.320;0.360;2024-01-30T07:03:42;9.20;99.90
42617;DHT22;28250;52.320;0.360;2024-01-30T07:06:09;9.10;99.90
42617;DHT22;28250;52.320;0.360;2024-01-30T07:08:38;9.10;99.90
42617;DHT22;28250;52.320;0.360;2024-01-30T07:11:07;9.10;99.90
42617;DHT22;28250;52.320;0.360;2024-01-30T07:13:34;9.10;99.90
42617;DHT22;28250;52.320;0.360;2024-01-30T07:16:00;9.10;99.90
42617;DHT22;28250;52.320;0.360;2024-01-30T07:18:26;9.10;99.90
42617;DHT22;28250;52.320;0.360;2024-01-30T07:20:53;9.10;99.90
42617;DHT22;28250;52.320;0.360;2024-01-30T07:23:19;9.00;99.90
42617;DHT22;28250;52.320;0.360;2024-01-30T07:25:45;9.00;99.90
42617;DHT22;28250;52.320;0.360;2024-01-30T07:28:11;8.70;99.90
42617;DHT22;28250;52.320;0.360;2024-01-30T07:30:38;8.70;99.90
42617;DHT22;28250;52.320;0.360;2024-01-30T07:33:04;8.60;99.90
42617;DHT22;28250;52.320;0.360;2024-01-30T07:35:30;8.60;99.90
42617;DHT22;28250;52.320;0.360;2024-01-30T07:37:56;8.60;99.90
42617;DHT22;28250;52.320;0.360;2024-01-30T07:40:23;8.60;99.90
42617;DHT22;28250;52.320;0.360;2024-01-30T07:42:49;8.60;99.90
42617;DHT22;28250;52.320;0.360;2024-01-30T07:45:16;8.60;99.90
42617;DHT22;28250;52.320;0.360;2024-01-30T07:47:42;8.50;99.90
42617;DHT22;28250;52.320;0.360;2024-01-30T07:50:08;8.50;99.90
42617;DHT22;28250;52.320;0.360;2024-01-30T07:52:35;8.50;99.90
42617;DHT22;28250;52.320;0.360;2024-01-30T07:55:01;8.40;99.90
42617;DHT22;28250;52.320;0.360;2024-01-30T07:57:29;8.40;99.90
42617;DHT22;28250;52.320;0.360;2024-01-30T07:59:55;8.30;99.90
42617;DHT22;28250;52.320;0.360;2024-01-30T08:02:22;8.30;99.90
42617;DHT22;28250;52.320;0.360;2024-01-30T08:04:49;8.30;99.90
42617;DHT22;28250;52.320;0.360;2024-01-30T08:07:15;8.30;99.90
42617;DHT22;28250;52.320;0.360;2024-01-30T08:09:43;8.20;99.90
42617;DHT22;28250;52.320;0.360;2024-01-30T08:12:09;8.20;99.90
42617;DHT22;28250;52.320;0.360;2024-01-30T08:14:36;8.20;99.90
42617;DHT22;28250;52.320;0.360;2024-01-30T08:17:02;8.20;99.90
42617;DHT22;28250;52.320;0.360;2024-01-30T08:19:28;8.20;99.90
42617;DHT22;28250;52.320;0.360;2024-01-30T08:21:54;8.20;99.90
42617;DHT22;28250;52.320;0.360;2024-01-30T08:24:21;8.20;99.90
42617;DHT22;28250;52.320;0.360;2024-01-30T08:26:47;8.20;99.90
42617;DHT22;28250;52.320;0.360;2024-01-30T08:29:13;8.20;99.90
42617;DHT22;28250;52.320;0.360;2024-01-30T08:31:39;8.10;99.90
42617;DHT22;28250;52.320;0.360;2024-01-30T08:34:05;8.00;99.90
42617;DHT22;28250;52.320;0.360;2024-01-30T08:36:31;7.90;99.90
42617;DHT22;28250;52.320;0.360;2024-01-30T08:38:57;7.90;99.90
42617;DHT22;28250;52.320;0.360;2024-01-30T08:41:24;7.80;99.90
42617;DHT22;28250;52.320;0.360;2024-01-30T08:43:50;7.80;99.90
42617;DHT22;28250;52.320;0.360;2024-01-30T08:46:19;7.70;99.90
42617;DHT22;28250;52.320;0.360;2024-01-30T08:48:46;7.70;99.90
42617;DHT22;28250;52.320;0.360;2024-01-30T08:51:13;7.70;99.90
42617;DHT22;28250;52.320;0.360;2024-01-30T08:53:41;7.70;99.90
42617;DHT22;28250;52.320;0.360;2024-01-30T08:56:07;7.70;99.90
42617;DHT22;28250;52.320;0.360;2024-01-30T08:58:33;7.60;99.90
42617;DHT22;28250;52.320;0.360;2024-01-30T09:00:59;7.60;99.90
42617;DHT22;28250;52.320;0.360;2024-01-30T09:03:25;7.50;99.90
42617;DHT22;28250;52.320;0.360;2024-01-30T09:05:51;7.50;99.90
42617;DHT22;28250;52.320;0.360;2024-01-30T09:08:17;7.50;99.90
42617;DHT22;28250;52.320;0.360;2024-01-30T09:10:43;7.50;99.90
42617;DHT22;28250;52.320;0.360;2024-01-30T09:13:10;7.50;99.90
42617;DHT22;28250;52.320;0.360;2024-01-30T09:15:36;7.40;99.90
42617;DHT22;28250;52.320;0.360;2024-01-30T09:18:02;7.50;99.90
42617;DHT22;28250;52.320;0.360;2024-01-30T09:20:28;7.40;99.90
42617;DHT22;28250;52.320;0.360;2024-01-30T09:22:54;7.50;99.90
42617;DHT22;28250;52.320;0.360;2024-01-30T09:25:20;7.50;99.90
42617;DHT22;28250;52.320;0.360;2024-01-30T09:27:46;7.40;99.90
42617;DHT22;28250;52.320;0.360;2024-01-30T09:30:13;7.40;99.90
42617;DHT22;28250;52.320;0.360;2024-01-30T09:32:40;7.40;99.90
42617;DHT22;28250;52.320;0.360;2024-01-30T09:35:06;7.40;99.90
42617;DHT22;28250;52.320;0.360;2024-01-30T09:37:33;7.50;99.90
42617;DHT22;28250;52.320;0.360;2024-01-30T09:39:59;7.40;99.90
42617;DHT22;28250;52.320;0.360;2024-01-30T09:42:33;7.40;99.90
42617;DHT22;28250;52.320;0.360;2024-01-30T09:45:04;7.40;99.90
42617;DHT22;28250;52.320;0.360;2024-01-30T09:47:32;7.50;99.90
42617;DHT22;28250;52.320;0.360;2024-01-30T09:50:11;7.50;99.90
42617;DHT22;28250;52.320;0.360;2024-01-30T09:52:38;7.50;99.90
42617;DHT22;28250;52.320;0.360;2024-01-30T09:55:06;7.50;99.90
42617;DHT22;28250;52.320;0.360;2024-01-30T09:57:34;7.50;99.90
42617;DHT22;28250;52.320;0.360;2024-01-30T10:00:00;7.50;99.90
42617;DHT22;28250;52.320;0.360;2024-01-30T10:02:26;7.50;99.90
42617;DHT22;28250;52.320;0.360;2024-01-30T10:04:53;7.50;99.90
42617;DHT22;28250;52.320;0.360;2024-01-30T10:07:19;7.50;99.90
42617;DHT22;28250;52.320;0.360;2024-01-30T10:09:46;7.40;99.90
42617;DHT22;28250;52.320;0.360;2024-01-30T10:12:12;7.40;99.90
42617;DHT22;28250;52.320;0.360;2024-01-30T10:14:41;7.40;99.90
42617;DHT22;28250;52.320;0.360;2024-01-30T10:17:15;7.40;99.90
42617;DHT22;28250;52.320;0.360;2024-01-30T10:19:49;7.40;99.90
42617;DHT22;28250;52.320;0.360;2024-01-30T10:22:25;7.50;99.90
42617;DHT22;28250;52.320;0.360;2024-01-30T10:24:54;7.50;99.90
42617;DHT22;28250;52.320;0.360;2024-01-30T10:27:26;7.50;99.90
42617;DHT22;28250;52.320;0.360;2024-01-30T10:29:53;7.50;99.90
42617;DHT22;28250;52.320;0.360;2024-01-30T10:32:19;7.40;99.90
42617;DHT22;28250;52.320;0.360;2024-01-30T10:34:46;7.50;99.90
42617;DHT22;28250;52.320;0.360;2024-01-30T10:37:12;7.50;99.90
42617;DHT22;28250;52.320;0.360;2024-01-30T10:39:42;7.50;99.90
42617;DHT22;28250;52.320;0.360;2024-01-30T10:42:13;7.50;99.90
42617;DHT22;28250;52.320;0.360;2024-01-30T10:44:48;7.50;99.90
42617;DHT22;28250;52.320;0.360;2024-01-30T10:47:26;7.50;99.90
42617;DHT22;28250;52.320;0.360;2024-01-30T10:49:54;7.50;99.90
42617;DHT22;28250;52.320;0.360;2024-01-30T10:52:21;7.60;99.90
42617;DHT22;28250;52.320;0.360;2024-01-30T10:54:51;7.50;99.90
42617;DHT22;28250;52.320;0.360;2024-01-30T10:57:18;7.50;99.90
42617;DHT22;28250;52.320;0.360;2024-01-30T10:59:45;7.50;99.90
42617;DHT22;28250;52.320;0.360;2024-01-30T11:02:13;7.50;99.90
42617;DHT22;28250;52.320;0.360;2024-01-30T11:04:43;7.50;99.90
42617;DHT22;28250;52.320;0.360;2024-01-30T11:07:23;7.50;99.90
42617;DHT22;28250;52.320;0.360;2024-01-30T11:12:32;7.60;99.90
42617;DHT22;28250;52.320;0.360;2024-01-30T11:15:18;7.60;99.90
42617;DHT22;28250;52.320;0.360;2024-01-30T11:17:51;7.70;99.90
42617;DHT22;28250;52.320;0.360;2024-01-30T11:20:31;7.70;99.90
42617;DHT22;28250;52.320;0.360;2024-01-30T11:22:58;7.70;99.90
42617;DHT22;28250;52.320;0.360;2024-01-30T11:25:25;7.70;99.90
42617;DHT22;28250;52.320;0.360;2024-01-30T11:27:55;7.80;99.90
42617;DHT22;28250;52.320;0.360;2024-01-30T11:30:26;7.70;99.90
42617;DHT22;28250;52.320;0.360;2024-01-30T11:33:05;7.70;99.90
42617;DHT22;28250;52.320;0.360;2024-01-30T11:35:41;7.80;99.90
42617;DHT22;28250;52.320;0.360;2024-01-30T11:38:09;7.70;99.90
42617;DHT22;28250;52.320;0.360;2024-01-30T11:40:38;7.70;99.90
42617;DHT22;28250;52.320;0.360;2024-01-30T11:43:06;7.70;99.90
42617;DHT22;28250;52.320;0.360;2024-01-30T11:45:34;7.70;99.90
42617;DHT22;28250;52.320;0.360;2024-01-30T11:48:00;7.70;99.90
42617;DHT22;28250;52.320;0.360;2024-01-30T11:50:31;7.70;99.90
42617;DHT22;28250;52.320;0.360;2024-01-30T11:53:02;7.70;99.90
42617;DHT22;28250;52.320;0.360;2024-01-30T11:55:32;7.80;99.90
42617;DHT22;28250;52.320;0.360;2024-01-30T11:57:58;7.70;99.90
42617;DHT22;28250;52.320;0.360;2024-01-30T12:00:24;7.80;99.90
42617;DHT22;28250;52.320;0.360;2024-01-30T12:02:52;7.80;99.90
42617;DHT22;28250;52.320;0.360;2024-01-30T12:05:22;7.70;99.90
42617;DHT22;28250;52.320;0.360;2024-01-30T12:07:51;7.70;99.90
42617;DHT22;28250;52.320;0.360;2024-01-30T12:10:18;7.70;99.90
42617;DHT22;28250;52.320;0.360;2024-01-30T12:12:50;7.70;99.90
42617;DHT22;28250;52.320;0.360;2024-01-30T12:15:18;7.70;99.90
42617;DHT22;28250;52.320;0.360;2024-01-30T12:17:47;7.70;99.90
42617;DHT22;28250;52.320;0.360;2024-01-30T12:20:14;7.70;99.90
42617;DHT22;28250;52.320;0.360;2024-01-30T12:22:45;7.70;99.90
42617;DHT22;28250;52.320;0.360;2024-01-30T12:25:20;7.80;99.90
42617;DHT22;28250;52.320;0.360;2024-01-30T12:27:52;7.70;99.90
42617;DHT22;28250;52.320;0.360;2024-01-30T12:30:20;7.70;99.90
42617;DHT22;28250;52.320;0.360;2024-01-30T12:32:48;7.80;99.90
42617;DHT22;28250;52.320;0.360;2024-01-30T12:35:17;7.80;99.90
42617;DHT22;28250;52.320;0.360;2024-01-30T12:37:45;7.80;99.90
42617;DHT22;28250;52.320;0.360;2024-01-30T12:40:13;7.80;99.90
42617;DHT22;28250;52.320;0.360;2024-01-30T12:42:41;7.90;99.90
42617;DHT22;28250;52.320;0.360;2024-01-30T12:45:13;8.00;99.90
42617;DHT22;28250;52.320;0.360;2024-01-30T12:47:40;8.10;99.90
42617;DHT22;28250;52.320;0.360;2024-01-30T12:50:07;8.10;99.90
42617;DHT22;28250;52.320;0.360;2024-01-30T12:52:33;8.10;99.90
42617;DHT22;28250;52.320;0.360;2024-01-30T12:54:59;8.10;99.90
42617;DHT22;28250;52.320;0.360;2024-01-30T12:57:25;8.10;99.90
42617;DHT22;28250;52.320;0.360;2024-01-30T12:59:51;8.10;99.90
42617;DHT22;28250;52.320;0.360;2024-01-30T13:02:17;8.20;99.90
42617;DHT22;28250;52.320;0.360;2024-01-30T13:04:43;8.10;99.90
42617;DHT22;28250;52.320;0.360;2024-01-30T13:07:09;8.00;99.90
42617;DHT22;28250;52.320;0.360;2024-01-30T13:09:36;8.10;99.90
42617;DHT22;28250;52.320;0.360;2024-01-30T13:12:02;7.90;99.90
42617;DHT22;28250;52.320;0.360;2024-01-30T13:14:28;7.90;99.90
42617;DHT22;28250;52.320;0.360;2024-01-30T13:16:55;7.80;99.90
42617;DHT22;28250;52.320;0.360;2024-01-30T13:19:21;7.90;99.90
42617;DHT22;28250;52.320;0.360;2024-01-30T13:21:47;8.00;99.90
42617;DHT22;28250;52.320;0.360;2024-01-30T13:24:13;7.90;99.90
42617;DHT22;28250;52.320;0.360;2024-01-30T13:26:40;8.00;99.90
42617;DHT22;28250;52.320;0.360;2024-01-30T13:29:08;8.20;99.90
42617;DHT22;28250;52.320;0.360;2024-01-30T13:31:34;8.20;99.90
42617;DHT22;28250;52.320;0.360;2024-01-30T13:34:00;8.30;99.90
42617;DHT22;28250;52.320;0.360;2024-01-30T13:36:26;8.20;99.90
42617;DHT22;28250;52.320;0.360;2024-01-30T13:38:52;8.20;99.90
42617;DHT22;28250;52.320;0.360;2024-01-30T13:41:19;8.10;99.90
42617;DHT22;28250;52.320;0.360;2024-01-30T13:43:46;8.10;99.90
42617;DHT22;28250;52.320;0.360;2024-01-30T13:46:12;8.10;99.90
42617;DHT22;28250;52.320;0.360;2024-01-30T13:48:38;8.10;99.90
42617;DHT22;28250;52.320;0.360;2024-01-30T13:51:04;8.20;99.90
42617;DHT22;28250;52.320;0.360;2024-01-30T13:53:31;8.20;99.90
42617;DHT22;28250;52.320;0.360;2024-01-30T13:55:57;8.20;99.90
42617;DHT22;28250;52.320;0.360;2024-01-30T13:58:23;8.10;99.90
42617;DHT22;28250;52.320;0.360;2024-01-30T14:00:49;8.10;99.90
42617;DHT22;28250;52.320;0.360;2024-01-30T14:03:15;8.10;99.90
42617;DHT22;28250;52.320;0.360;2024-01-30T14:05:41;8.10;99.90
42617;DHT22;28250;52.320;0.360;2024-01-30T14:08:07;8.00;99.90
42617;DHT22;28250;52.320;0.360;2024-01-30T14:10:34;7.90;99.90
42617;DHT22;28250;52.320;0.360;2024-01-30T14:13:00;8.00;99.90
42617;DHT22;28250;52.320;0.360;2024-01-30T14:15:26;8.00;99.90
42617;DHT22;28250;52.320;0.360;2024-01-30T14:17:52;7.90;99.90
42617;DHT22;28250;52.320;0.360;2024-01-30T14:20:19;8.00;99.90
42617;DHT22;28250;52.320;0.360;2024-01-30T14:22:45;8.00;99.90
42617;DHT22;28250;52.320;0.360;2024-01-30T14:25:11;8.10;99.90
42617;DHT22;28250;52.320;0.360;2024-01-30T14:27:38;8.10;99.90
42617;DHT22;28250;52.320;0.360;2024-01-30T14:30:04;8.10;99.90
42617;DHT22;28250;52.320;0.360;2024-01-30T14:32:32;8.00;99.90
42617;DHT22;28250;52.320;0.360;2024-01-30T14:34:58;8.00;99.90
42617;DHT22;28250;52.320;0.360;2024-01-30T14:37:24;7.90;99.90
42617;DHT22;28250;52.320;0.360;2024-01-30T14:39:50;8.00;99.90
42617;DHT22;28250;52.320;0.360;2024-01-30T14:42:16;8.00;99.90
42617;DHT22;28250;52.320;0.360;2024-01-30T14:44:43;8.00;99.90
42617;DHT22;28250;52.320;0.360;2024-01-30T14:47:09;7.90;99.90
42617;DHT22;28250;52.320;0.360;2024-01-30T14:49:35;7.80;99.90
42617;DHT22;28250;52.320;0.360;2024-01-30T14:52:01;7.90;99.90
42617;DHT22;28250;52.320;0.360;2024-01-30T14:54:30;7.80;99.90
42617;DHT22;28250;52.320;0.360;2024-01-30T14:56:56;7.90;99.90
42617;DHT22;28250;52.320;0.360;2024-01-30T14:59:22;7.90;99.90
42617;DHT22;28250;52.320;0.360;2024-01-30T15:01:48;7.80;99.90
42617;DHT22;28250;52.320;0.360;2024-01-30T15:04:15;7.90;99.90
42617;DHT22;28250;52.320;0.360;2024-01-30T15:06:41;7.80;99.90
42617;DHT22;28250;52.320;0.360;2024-01-30T15:09:13;7.80;99.90
42617;DHT22;28250;52.320;0.360;2024-01-30T15:11:44;7.70;99.90
42617;DHT22;28250;52.320;0.360;2024-01-30T15:14:11;7.60;99.90
42617;DHT22;28250;52.320;0.360;2024-01-30T15:16:37;7.50;99.90
42617;DHT22;28250;52.320;0.360;2024-01-30T15:19:04;7.60;99.90
42617;DHT22;28250;52.320;0.360;2024-01-30T15:21:34;7.70;99.90
42617;DHT22;28250;52.320;0.360;2024-01-30T15:24:00;7.60;99.90
42617;DHT22;28250;52.320;0.360;2024-01-30T15:26:28;7.70;99.90
42617;DHT22;28250;52.320;0.360;2024-01-30T15:28:54;7.70;99.90
42617;DHT22;28250;52.320;0.360;2024-01-30T15:31:20;7.60;99.90
42617;DHT22;28250;52.320;0.360;2024-01-30T15:33:47;7.60;99.90
42617;DHT22;28250;52.320;0.360;2024-01-30T15:36:13;7.50;99.90
42617;DHT22;28250;52.320;0.360;2024-01-30T15:38:40;7.60;99.90
42617;DHT22;28250;52.320;0.360;2024-01-30T15:41:06;7.40;99.90
42617;DHT22;28250;52.320;0.360;2024-01-30T15:43:32;7.50;99.90